sensor_id;sensor_type;location;lat;lon;timestamp;temperature;humidity
16532;DHT22;66872;63.142;14.482;2024-02-14T00:02:16;14.70;24.30
16532;DHT22;66872;63.142;14.482;2024-02-14T00:04:42;14.70;24.30
16532;DHT22;66872;63.142;14.482;2024-02-14T00:07:08;14.70;24.30
16532;DHT22;66872;63.142;14.482;2024-02-14T00:09:34;14.70;24.30
16532;DHT22;66872;63.142;14.482;2024-02-14T00:12:00;14.70;24.30
16532;DHT22;66872;63.142;14.482;2024-02-14T00:14:26;14.70;24.30
16532;DHT22;66872;63.142;14.482;2024-02-14T00:16:51;14.70;24.30
16532;DHT22;66872;63.142;14.482;2024-02-14T00:19:17;14.70;24.40
16532;DHT22;66872;63.142;14.482;2024-02-14T00:21:43;14.70;24.40
16532;DHT22;66872;63.142;14.482;2024-02-14T00:24:08;14.60;24.30
16532;DHT22;66872;63.142;14.482;2024-02-14T00:26:35;14.60;24.40
16532;DHT22;66872;63.142;14.482;2024-02-14T00:29:02;14.70;24.50
16532;DHT22;66872;63.142;14.482;2024-02-14T00:31:28;14.60;24.40
16532;DHT22;66872;63.142;14.482;2024-02-14T00:33:54;14.60;24.40
16532;DHT22;66872;63.142;14.482;2024-02-14T00:36:20;14.70;24.50
16532;DHT22;66872;63.142;14.482;2024-02-14T00:38:46;14.60;24.40
16532;DHT22;66872;63.142;14.482;2024-02-14T00:41:12;14.60;24.50
16532;DHT22;66872;63.142;14.482;2024-02-14T00:43:37;14.60;24.40
16532;DHT22;66872;63.142;14.482;2024-02-14T00:46:03;14.60;24.40
16532;DHT22;66872;63.142;14.482;2024-02-14T00:48:29;14.60;24.50
16532;DHT22;66872;63.142;14.482;2024-02-14T00:50:54;14.60;24.50
16532;DHT22;66872;63.142;14.482;2024-02-14T00:53:20;14.60;24.50
16532;DHT22;66872;63.142;14.482;2024-02-14T00:55:46;14.60;24.50
16532;DHT22;66872;63.142;14.482;2024-02-14T00:58:12;14.60;24.50
16532;DHT22;66872;63.142;14.482;2024-02-14T01:00:37;14.60;24.40
16532;DHT22;66872;63.142;14.482;2024-02-14T01:03:03;14.60;24.40
16532;DHT22;66872;63.142;14.482;2024-02-14T01:05:29;14.70;24.50
16532;DHT22;66872;63.142;14.482;2024-02-14T01:07:55;14.60;24.40
16532;DHT22;66872;63.142;14.482;2024-02-14T01:10:20;14.60;24.40
16532;DHT22;66872;63.142;14.482;2024-02-14T01:12:46;14.70;24.50
16532;DHT22;66872;63.142;14.482;2024-02-14T01:15:12;14.70;24.50
16532;DHT22;66872;63.142;14.482;2024-02-14T01:17:38;14.70;24.50
16532;DHT22;66872;63.142;14.482;2024-02-14T01:20:05;14.70;24.50
16532;DHT22;66872;63.142;14.482;2024-02-14T01:22:34;14.60;24.40
16532;DHT22;66872;63.142;14.482;2024-02-14T01:24:59;14.60;24.40
16532;DHT22;66872;63.142;14.482;2024-02-14T01:27:25;14.70;24.50
16532;DHT22;66872;63.142;14.482;2024-02-14T01:29:51;14.60;24.40
16532;DHT22;66872;63.142;14.482;2024-02-14T01:32:16;14.60;24.40
16532;DHT22;66872;63.142;14.482;2024-02-14T01:34:42;14.60;24.50
16532;DHT22;66872;63.142;14.482;2024-02-14T01:37:09;14.60;24.50
16532;DHT22;66872;63.142;14.482;2024-02-14T01:39:37;14.60;24.50
16532;DHT22;66872;63.142;14.482;2024-02-14T01:42:03;14.60;24.60
16532;DHT22;66872;63.142;14.482;2024-02-14T01:44:32;14.60;24.60
16532;DHT22;66872;63.142;14.482;2024-02-14T01:46:59;14.60;24.60
16532;DHT22;66872;63.142;14.482;2024-02-14T01:49:26;14.60;24.60
16532;DHT22;66872;63.142;14.482;2024-02-14T01:51:59;14.60;24.60
16532;DHT22;66872;63.142;14.482;2024-02-14T01:54:27;14.60;24.60
16532;DHT22;66872;63.142;14.482;2024-02-14T01:56:54;14.60;24.60
16532;DHT22;66872;63.142;14.482;2024-02-14T01:59:20;14.60;24.70
16532;DHT22;66872;63.142;14.482;2024-02-14T02:01:47;14.50;24.60
16532;DHT22;66872;63.142;14.482;2024-02-14T02:04:13;14.50;24.60
16532;DHT22;66872;63.142;14.482;2024-02-14T02:06:38;14.50;24.60
16532;DHT22;66872;63.142;14.482;2024-02-14T02:09:07;14.50;24.60
16532;DHT22;66872;63.142;14.482;2024-02-14T02:11:45;14.60;24.70
16532;DHT22;66872;63.142;14.482;2024-02-14T02:14:10;14.60;24.70
16532;DHT22;66872;63.142;14.482;2024-02-14T02:16:38;14.50;24.60
16532;DHT22;66872;63.142;14.482;2024-02-14T02:19:03;14.60;24.70
16532;DHT22;66872;63.142;14.482;2024-02-14T02:21:34;14.60;24.70
16532;DHT22;66872;63.142;14.482;2024-02-14T02:24:00;14.60;24.70
16532;DHT22;66872;63.142;14.482;2024-02-14T02:26:26;14.60;24.70
16532;DHT22;66872;63.142;14.482;2024-02-14T02:28:52;14.60;24.70
16532;DHT22;66872;63.142;14.482;2024-02-14T02:31:19;14.60;24.70
16532;DHT22;66872;63.142;14.482;2024-02-14T02:33:44;14.50;24.70
16532;DHT22;66872;63.142;14.482;2024-02-14T02:36:10;14.60;24.70
16532;DHT22;66872;63.142;14.482;2024-02-14T02:38:36;14.60;24.70
16532;DHT22;66872;63.142;14.482;2024-02-14T02:41:03;14.60;24.70
16532;DHT22;66872;63.142;14.482;2024-02-14T02:43:32;14.60;24.70
16532;DHT22;66872;63.142;14.482;2024-02-14T02:45:57;14.50;24.70
16532;DHT22;66872;63.142;14.482;2024-02-14T02:48:23;14.50;24.70
16532;DHT22;66872;63.142;14.482;2024-02-14T02:50:49;14.60;24.70
16532;DHT22;66872;63.142;14.482;2024-02-14T02:53:16;14.50;24.70
16532;DHT22;66872;63.142;14.482;2024-02-14T02:55:42;14.60;24.70
16532;DHT22;66872;63.142;14.482;2024-02-14T02:58:07;14.50;24.70
16532;DHT22;66872;63.142;14.482;2024-02-14T03:00:33;14.50;24.80
16532;DHT22;66872;63.142;14.482;2024-02-14T03:02:59;14.50;24.80
16532;DHT22;66872;63.142;14.482;2024-02-14T03:05:26;14.50;24.80
16532;DHT22;66872;63.142;14.482;2024-02-14T03:07:52;14.50;24.80
16532;DHT22;66872;63.142;14.482;2024-02-14T03:10:18;14.50;24.80
16532;DHT22;66872;63.142;14.482;2024-02-14T03:12:46;14.50;24.90
16532;DHT22;66872;63.142;14.482;2024-02-14T03:15:12;14.40;24.80
16532;DHT22;66872;63.142;14.482;2024-02-14T03:17:39;14.50;24.90
16532;DHT22;66872;63.142;14.482;2024-02-14T03:20:05;14.40;24.90
16532;DHT22;66872;63.142;14.482;2024-02-14T03:22:41;14.40;24.90
16532;DHT22;66872;63.142;14.482;2024-02-14T03:25:20;14.40;24.90
16532;DHT22;66872;63.142;14.482;2024-02-14T03:27:46;14.50;24.90
16532;DHT22;66872;63.142;14.482;2024-02-14T03:30:21;14.40;24.90
16532;DHT22;66872;63.142;14.482;2024-02-14T03:32:48;14.40;24.90
16532;DHT22;66872;63.142;14.482;2024-02-14T03:35:14;14.40;24.90
16532;DHT22;66872;63.142;14.482;2024-02-14T03:37:41;14.50;25.00
16532;DHT22;66872;63.142;14.482;2024-02-14T03:40:08;14.40;24.90
16532;DHT22;66872;63.142;14.482;2024-02-14T03:42:35;14.40;25.00
16532;DHT22;66872;63.142;14.482;2024-02-14T03:45:01;14.40;25.00
16532;DHT22;66872;63.142;14.482;2024-02-14T03:47:31;14.40;25.00
16532;DHT22;66872;63.142;14.482;2024-02-14T03:49:58;14.40;25.00
16532;DHT22;66872;63.142;14.482;2024-02-14T03:52:24;14.40;25.00
16532;DHT22;66872;63.142;14.482;2024-02-14T03:54:50;14.40;25.10
16532;DHT22;66872;63.142;14.482;2024-02-14T03:57:16;14.40;25.00
16532;DHT22;66872;63.142;14.482;2024-02-14T03:59:43;14.40;25.00
16532;DHT22;66872;63.142;14.482;2024-02-14T04:02:10;14.40;25.00
16532;DHT22;66872;63.142;14.482;2024-02-14T04:04:41;14.40;25.00
16532;DHT22;66872;63.142;14.482;2024-02-14T04:07:08;14.40;25.00
16532;DHT22;66872;63.142;14.482;2024-02-14T04:09:35;14.40;25.00
16532;DHT22;66872;63.142;14.482;2024-02-14T04:12:01;14.40;25.10
16532;DHT22;66872;63.142;14.482;2024-02-14T04:14:26;14.40;25.00
16532;DHT22;66872;63.142;14.482;2024-02-14T04:16:52;14.40;25.00
16532;DHT22;66872;63.142;14.482;2024-02-14T04:19:18;14.40;25.10
16532;DHT22;66872;63.142;14.482;2024-02-14T04:21:45;14.40;25.10
16532;DHT22;66872;63.142;14.482;2024-02-14T04:24:11;14.40;25.10
16532;DHT22;66872;63.142;14.482;2024-02-14T04:26:36;14.40;25.10
16532;DHT22;66872;63.142;14.482;2024-02-14T04:29:02;14.40;25.10
16532;DHT22;66872;63.142;14.482;2024-02-14T04:31:28;14.40;25.10
16532;DHT22;66872;63.142;14.482;2024-02-14T04:33:57;14.40;25.00
16532;DHT22;66872;63.142;14.482;2024-02-14T04:36:24;14.50;25.00
16532;DHT22;66872;63.142;14.482;2024-02-14T04:38:50;14.50;25.00
16532;DHT22;66872;63.142;14.482;2024-02-14T04:41:17;14.50;25.00
16532;DHT22;66872;63.142;14.482;2024-02-14T04:43:43;14.50;25.00
16532;DHT22;66872;63.142;14.482;2024-02-14T04:46:08;14.50;25.10
16532;DHT22;66872;63.142;14.482;2024-02-14T04:48:37;14.40;25.00
16532;DHT22;66872;63.142;14.482;2024-02-14T04:51:04;14.40;25.00
16532;DHT22;66872;63.142;14.482;2024-02-14T04:53:32;14.50;25.10
16532;DHT22;66872;63.142;14.482;2024-02-14T04:55:59;14.40;25.00
16532;DHT22;66872;63.142;14.482;2024-02-14T04:58:24;14.40;25.00
16532;DHT22;66872;63.142;14.482;2024-02-14T05:00:52;14.40;25.00
16532;DHT22;66872;63.142;14.482;2024-02-14T05:03:18;14.40;25.10
16532;DHT22;66872;63.142;14.482;2024-02-14T05:05:44;14.40;25.10
16532;DHT22;66872;63.142;14.482;2024-02-14T05:08:12;14.40;25.10
16532;DHT22;66872;63.142;14.482;2024-02-14T05:10:38;14.40;25.10
16532;DHT22;66872;63.142;14.482;2024-02-14T05:13:04;14.40;25.10
16532;DHT22;66872;63.142;14.482;2024-02-14T05:15:30;14.40;25.10
16532;DHT22;66872;63.142;14.482;2024-02-14T05:17:56;14.40;25.10
16532;DHT22;66872;63.142;14.482;2024-02-14T05:20:21;14.40;25.10
16532;DHT22;66872;63.142;14.482;2024-02-14T05:22:47;14.40;25.10
16532;DHT22;66872;63.142;14.482;2024-02-14T05:25:13;14.40;25.10
16532;DHT22;66872;63.142;14.482;2024-02-14T05:27:39;14.40;25.10
16532;DHT22;66872;63.142;14.482;2024-02-14T05:30:05;14.40;25.10
16532;DHT22;66872;63.142;14.482;2024-02-14T05:32:34;14.40;25.10
16532;DHT22;66872;63.142;14.482;2024-02-14T05:35:00;14.40;25.10
16532;DHT22;66872;63.142;14.482;2024-02-14T05:37:27;14.40;25.00
16532;DHT22;66872;63.142;14.482;2024-02-14T05:39:53;14.40;25.10
16532;DHT22;66872;63.142;14.482;2024-02-14T05:42:19;14.40;25.10
16532;DHT22;66872;63.142;14.482;2024-02-14T05:44:45;14.40;25.10
16532;DHT22;66872;63.142;14.482;2024-02-14T05:47:11;14.40;25.10
16532;DHT22;66872;63.142;14.482;2024-02-14T05:49:40;14.40;25.10
16532;DHT22;66872;63.142;14.482;2024-02-14T05:52:07;14.40;25.00
16532;DHT22;66872;63.142;14.482;2024-02-14T05:54:33;14.40;25.10
16532;DHT22;66872;63.142;14.482;2024-02-14T05:56:59;14.40;25.10
16532;DHT22;66872;63.142;14.482;2024-02-14T05:59:25;14.40;25.10
16532;DHT22;66872;63.142;14.482;2024-02-14T06:01:50;14.40;25.30
16532;DHT22;66872;63.142;14.482;2024-02-14T06:04:16;14.40;25.10
16532;DHT22;66872;63.142;14.482;2024-02-14T06:06:41;14.40;25.10
16532;DHT22;66872;63.142;14.482;2024-02-14T06:09:07;14.30;25.10
16532;DHT22;66872;63.142;14.482;2024-02-14T06:11:37;14.30;25.10
16532;DHT22;66872;63.142;14.482;2024-02-14T06:14:05;14.30;25.10
16532;DHT22;66872;63.142;14.482;2024-02-14T06:16:32;14.30;25.20
16532;DHT22;66872;63.142;14.482;2024-02-14T06:18:57;14.30;25.20
16532;DHT22;66872;63.142;14.482;2024-02-14T06:21:23;14.30;25.20
16532;DHT22;66872;63.142;14.482;2024-02-14T06:23:49;14.40;25.20
16532;DHT22;66872;63.142;14.482;2024-02-14T06:26:14;14.40;25.20
16532;DHT22;66872;63.142;14.482;2024-02-14T06:28:40;14.40;25.20
16532;DHT22;66872;63.142;14.482;2024-02-14T06:31:06;14.40;25.20
16532;DHT22;66872;63.142;14.482;2024-02-14T06:33:31;14.40;25.20
16532;DHT22;66872;63.142;14.482;2024-02-14T06:35:57;14.30;25.20
16532;DHT22;66872;63.142;14.482;2024-02-14T06:38:23;14.30;25.20
16532;DHT22;66872;63.142;14.482;2024-02-14T06:40:49;14.30;25.20
16532;DHT22;66872;63.142;14.482;2024-02-14T06:43:14;14.30;25.20
16532;DHT22;66872;63.142;14.482;2024-02-14T06:45:40;14.30;25.30
16532;DHT22;66872;63.142;14.482;2024-02-14T06:48:07;14.30;25.30
16532;DHT22;66872;63.142;14.482;2024-02-14T06:50:34;14.30;25.30
16532;DHT22;66872;63.142;14.482;2024-02-14T06:53:03;14.30;25.30
16532;DHT22;66872;63.142;14.482;2024-02-14T06:55:28;14.30;25.30
16532;DHT22;66872;63.142;14.482;2024-02-14T06:57:57;14.30;25.30
16532;DHT22;66872;63.142;14.482;2024-02-14T07:00:23;14.30;25.30
16532;DHT22;66872;63.142;14.482;2024-02-14T07:02:49;14.30;25.30
16532;DHT22;66872;63.142;14.482;2024-02-14T07:05:15;14.30;25.30
16532;DHT22;66872;63.142;14.482;2024-02-14T07:07:41;14.30;25.30
16532;DHT22;66872;63.142;14.482;2024-02-14T07:10:08;14.30;25.30
16532;DHT22;66872;63.142;14.482;2024-02-14T07:12:33;14.30;25.30
16532;DHT22;66872;63.142;14.482;2024-02-14T07:15:02;14.30;25.30
16532;DHT22;66872;63.142;14.482;2024-02-14T07:17:29;14.30;25.30
16532;DHT22;66872;63.142;14.482;2024-02-14T07:19:55;14.40;25.30
16532;DHT22;66872;63.142;14.482;2024-02-14T07:22:21;14.40;25.30
16532;DHT22;66872;63.142;14.482;2024-02-14T07:24:46;14.40;25.30
16532;DHT22;66872;63.142;14.482;2024-02-14T07:27:13;14.40;25.20
16532;DHT22;66872;63.142;14.482;2024-02-14T07:29:39;14.40;25.20
16532;DHT22;66872;63.142;14.482;2024-02-14T07:32:05;14.40;25.20
16532;DHT22;66872;63.142;14.482;2024-02-14T07:34:32;14.40;25.20
16532;DHT22;66872;63.142;14.482;2024-02-14T07:36:57;14.40;25.30
16532;DHT22;66872;63.142;14.482;2024-02-14T07:39:23;14.40;25.30
16532;DHT22;66872;63.142;14.482;2024-02-14T07:41:49;14.40;25.30
16532;DHT22;66872;63.142;14.482;2024-02-14T07:44:15;14.40;25.40
16532;DHT22;66872;63.142;14.482;2024-02-14T07:46:40;14.30;25.40
16532;DHT22;66872;63.142;14.482;2024-02-14T07:49:06;14.30;25.40
16532;DHT22;66872;63.142;14.482;2024-02-14T07:51:32;14.30;25.40
16532;DHT22;66872;63.142;14.482;2024-02-14T07:54:05;14.30;25.40
16532;DHT22;66872;63.142;14.482;2024-02-14T07:56:31;14.30;25.40
16532;DHT22;66872;63.142;14.482;2024-02-14T07:58:57;14.30;25.40
16532;DHT22;66872;63.142;14.482;2024-02-14T08:01:24;14.30;25.40
16532;DHT22;66872;63.142;14.482;2024-02-14T08:03:49;14.30;25.90
16532;DHT22;66872;63.142;14.482;2024-02-14T08:06:15;14.30;25.40
16532;DHT22;66872;63.142;14.482;2024-02-14T08:08:41;14.30;25.30
16532;DHT22;66872;63.142;14.482;2024-02-14T08:11:07;14.30;25.40
16532;DHT22;66872;63.142;14.482;2024-02-14T08:13:32;14.40;25.30
16532;DHT22;66872;63.142;14.482;2024-02-14T08:16:00;14.40;25.30
16532;DHT22;66872;63.142;14.482;2024-02-14T08:18:25;14.50;25.30
16532;DHT22;66872;63.142;14.482;2024-02-14T08:20:53;14.40;25.20
16532;DHT22;66872;63.142;14.482;2024-02-14T08:23:18;14.50;25.20
16532;DHT22;66872;63.142;14.482;2024-02-14T08:25:46;14.50;25.20
16532;DHT22;66872;63.142;14.482;2024-02-14T08:28:11;14.50;25.20
16532;DHT22;66872;63.142;14.482;2024-02-14T08:30:37;14.50;25.10
16532;DHT22;66872;63.142;14.482;2024-02-14T08:33:03;14.50;25.10
16532;DHT22;66872;63.142;14.482;2024-02-14T08:35:29;14.50;25.10
16532;DHT22;66872;63.142;14.482;2024-02-14T08:37:55;14.60;25.20
16532;DHT22;66872;63.142;14.482;2024-02-14T08:40:21;14.60;25.10
16532;DHT22;66872;63.142;14.482;2024-02-14T08:42:46;14.60;25.00
16532;DHT22;66872;63.142;14.482;2024-02-14T08:45:12;14.60;25.10
16532;DHT22;66872;63.142;14.482;2024-02-14T08:47:38;14.60;25.00
16532;DHT22;66872;63.142;14.482;2024-02-14T08:50:04;14.60;25.00
16532;DHT22;66872;63.142;14.482;2024-02-14T08:52:30;14.60;25.10
16532;DHT22;66872;63.142;14.482;2024-02-14T08:54:56;14.60;25.10
16532;DHT22;66872;63.142;14.482;2024-02-14T08:57:21;14.60;25.00
16532;DHT22;66872;63.142;14.482;2024-02-14T08:59:49;14.70;25.10
16532;DHT22;66872;63.142;14.482;2024-02-14T09:02:15;14.60;24.90
16532;DHT22;66872;63.142;14.482;2024-02-14T09:04:42;14.60;24.90
16532;DHT22;66872;63.142;14.482;2024-02-14T09:07:08;14.70;24.90
16532;DHT22;66872;63.142;14.482;2024-02-14T09:09:33;14.70;24.90
16532;DHT22;66872;63.142;14.482;2024-02-14T09:11:59;14.70;24.80
16532;DHT22;66872;63.142;14.482;2024-02-14T09:14:31;14.70;24.80
16532;DHT22;66872;63.142;14.482;2024-02-14T09:16:57;14.70;24.80
16532;DHT22;66872;63.142;14.482;2024-02-14T09:19:23;14.70;24.90
16532;DHT22;66872;63.142;14.482;2024-02-14T09:21:50;14.70;24.80
16532;DHT22;66872;63.142;14.482;2024-02-14T09:24:16;14.70;24.80
16532;DHT22;66872;63.142;14.482;2024-02-14T09:26:42;14.80;24.80
16532;DHT22;66872;63.142;14.482;2024-02-14T09:29:08;14.80;24.80
16532;DHT22;66872;63.142;14.482;2024-02-14T09:31:36;14.80;24.80
16532;DHT22;66872;63.142;14.482;2024-02-14T09:34:02;14.70;24.70
16532;DHT22;66872;63.142;14.482;2024-02-14T09:36:28;14.70;24.80
16532;DHT22;66872;63.142;14.482;2024-02-14T09:38:55;14.80;24.80
16532;DHT22;66872;63.142;14.482;2024-02-14T09:41:32;14.80;24.80
16532;DHT22;66872;63.142;14.482;2024-02-14T09:44:02;14.80;24.70
16532;DHT22;66872;63.142;14.482;2024-02-14T09:46:28;14.80;24.70
16532;DHT22;66872;63.142;14.482;2024-02-14T09:48:56;14.80;24.60
16532;DHT22;66872;63.142;14.482;2024-02-14T09:51:24;14.80;24.60
16532;DHT22;66872;63.142;14.482;2024-02-14T09:53:50;14.90;24.70
16532;DHT22;66872;63.142;14.482;2024-02-14T09:56:19;14.90;24.70
16532;DHT22;66872;63.142;14.482;2024-02-14T09:58:49;14.90;24.60
16532;DHT22;66872;63.142;14.482;2024-02-14T10:01:21;14.90;24.60
16532;DHT22;66872;63.142;14.482;2024-02-14T10:03:53;14.90;24.60
16532;DHT22;66872;63.142;14.482;2024-02-14T10:06:19;14.90;24.60
16532;DHT22;66872;63.142;14.482;2024-02-14T10:08:47;14.90;24.60
16532;DHT22;66872;63.142;14.482;2024-02-14T10:11:14;14.90;24.70
16532;DHT22;66872;63.142;14.482;2024-02-14T10:13:41;14.90;24.70
16532;DHT22;66872;63.142;14.482;2024-02-14T10:16:10;14.90;24.60
16532;DHT22;66872;63.142;14.482;2024-02-14T10:18:38;14.90;24.60
16532;DHT22;66872;63.142;14.482;2024-02-14T10:21:04;14.90;24.60
16532;DHT22;66872;63.142;14.482;2024-02-14T10:23:30;14.90;24.60
16532;DHT22;66872;63.142;14.482;2024-02-14T10:25:57;14.90;24.50
16532;DHT22;66872;63.142;14.482;2024-02-14T10:28:22;14.90;24.50
16532;DHT22;66872;63.142;14.482;2024-02-14T10:30:49;14.90;24.60
16532;DHT22;66872;63.142;14.482;2024-02-14T10:33:18;14.90;24.50
16532;DHT22;66872;63.142;14.482;2024-02-14T10:35:45;14.90;24.50
16532;DHT22;66872;63.142;14.482;2024-02-14T10:38:11;15.00;24.60
16532;DHT22;66872;63.142;14.482;2024-02-14T10:40:38;15.00;24.60
16532;DHT22;66872;63.142;14.482;2024-02-14T10:43:06;15.00;24.60
16532;DHT22;66872;63.142;14.482;2024-02-14T10:45:31;15.00;24.50
16532;DHT22;66872;63.142;14.482;2024-02-14T10:48:00;15.00;25.00
16532;DHT22;66872;63.142;14.482;2024-02-14T10:50:28;15.00;24.40
16532;DHT22;66872;63.142;14.482;2024-02-14T10:52:57;15.00;24.50
16532;DHT22;66872;63.142;14.482;2024-02-14T10:55:24;15.00;24.50
16532;DHT22;66872;63.142;14.482;2024-02-14T10:57:53;15.00;24.40
16532;DHT22;66872;63.142;14.482;2024-02-14T11:00:20;15.00;24.50
16532;DHT22;66872;63.142;14.482;2024-02-14T11:02:47;15.00;24.50
16532;DHT22;66872;63.142;14.482;2024-02-14T11:05:14;15.00;24.50
16532;DHT22;66872;63.142;14.482;2024-02-14T11:07:46;15.00;24.40
16532;DHT22;66872;63.142;14.482;2024-02-14T11:10:19;15.00;24.50
16532;DHT22;66872;63.142;14.482;2024-02-14T11:12:47;15.00;24.60
16532;DHT22;66872;63.142;14.482;2024-02-14T11:15:19;15.00;24.50
16532;DHT22;66872;63.142;14.482;2024-02-14T11:17:46;15.00;24.50
16532;DHT22;66872;63.142;14.482;2024-02-14T11:20:21;15.00;24.50
16532;DHT22;66872;63.142;14.482;2024-02-14T11:22:56;15.00;24.50
16532;DHT22;66872;63.142;14.482;2024-02-14T11:25:23;15.00;24.50
16532;DHT22;66872;63.142;14.482;2024-02-14T11:27:53;15.00;24.50
16532;DHT22;66872;63.142;14.482;2024-02-14T11:30:33;15.00;24.50
16532;DHT22;66872;63.142;14.482;2024-02-14T11:33:20;15.00;24.50
16532;DHT22;66872;63.142;14.482;2024-02-14T11:35:50;15.10;24.50
16532;DHT22;66872;63.142;14.482;2024-02-14T11:38:17;15.00;24.50
16532;DHT22;66872;63.142;14.482;2024-02-14T11:40:43;15.00;24.50
16532;DHT22;66872;63.142;14.482;2024-02-14T11:43:17;15.00;24.50
16532;DHT22;66872;63.142;14.482;2024-02-14T11:45:43;15.00;24.60
16532;DHT22;66872;63.142;14.482;2024-02-14T11:48:14;15.00;24.60
16532;DHT22;66872;63.142;14.482;2024-02-14T11:50:41;15.00;24.50
16532;DHT22;66872;63.142;14.482;2024-02-14T11:53:11;15.00;24.60
16532;DHT22;66872;63.142;14.482;2024-02-14T11:55:38;15.10;24.60
16532;DHT22;66872;63.142;14.482;2024-02-14T11:58:07;15.00;24.60
16532;DHT22;66872;63.142;14.482;2024-02-14T12:00:34;15.10;24.60
16532;DHT22;66872;63.142;14.482;2024-02-14T12:03:01;15.00;24.60
16532;DHT22;66872;63.142;14.482;2024-02-14T12:05:27;15.10;24.70
16532;DHT22;66872;63.142;14.482;2024-02-14T12:07:53;15.10;24.60
16532;DHT22;66872;63.142;14.482;2024-02-14T12:10:20;15.10;24.70
16532;DHT22;66872;63.142;14.482;2024-02-14T12:12:47;15.10;24.70
16532;DHT22;66872;63.142;14.482;2024-02-14T12:15:13;15.00;24.60
16532;DHT22;66872;63.142;14.482;2024-02-14T12:17:41;15.00;24.60
16532;DHT22;66872;63.142;14.482;2024-02-14T12:20:11;15.10;24.70
16532;DHT22;66872;63.142;14.482;2024-02-14T12:22:40;15.10;24.70
16532;DHT22;66872;63.142;14.482;2024-02-14T12:25:07;15.10;24.70
16532;DHT22;66872;63.142;14.482;2024-02-14T12:27:33;15.10;24.70
16532;DHT22;66872;63.142;14.482;2024-02-14T12:30:02;15.10;24.70
16532;DHT22;66872;63.142;14.482;2024-02-14T12:32:28;15.10;24.70
16532;DHT22;66872;63.142;14.482;2024-02-14T12:34:56;15.10;24.70
16532;DHT22;66872;63.142;14.482;2024-02-14T12:37:23;15.10;24.80
16532;DHT22;66872;63.142;14.482;2024-02-14T12:39:48;15.10;24.70
16532;DHT22;66872;63.142;14.482;2024-02-14T12:42:14;15.10;24.70
16532;DHT22;66872;63.142;14.482;2024-02-14T12:44:40;15.10;24.70
16532;DHT22;66872;63.142;14.482;2024-02-14T12:47:06;15.10;24.70
16532;DHT22;66872;63.142;14.482;2024-02-14T12:49:34;15.10;24.70
16532;DHT22;66872;63.142;14.482;2024-02-14T12:51:59;15.10;24.70
16532;DHT22;66872;63.142;14.482;2024-02-14T12:54:25;15.10;24.70
16532;DHT22;66872;63.142;14.482;2024-02-14T12:56:52;15.10;24.70
16532;DHT22;66872;63.142;14.482;2024-02-14T12:59:18;15.10;24.80
16532;DHT22;66872;63.142;14.482;2024-02-14T13:01:44;15.10;24.80
16532;DHT22;66872;63.142;14.482;2024-02-14T13:04:10;15.10;24.80
16532;DHT22;66872;63.142;14.482;2024-02-14T13:06:36;15.10;24.80
16532;DHT22;66872;63.142;14.482;2024-02-14T13:09:05;15.10;25.20
16532;DHT22;66872;63.142;14.482;2024-02-14T13:11:31;15.10;24.70
16532;DHT22;66872;63.142;14.482;2024-02-14T13:13:58;15.10;24.80
16532;DHT22;66872;63.142;14.482;2024-02-14T13:16:24;15.10;24.80
16532;DHT22;66872;63.142;14.482;2024-02-14T13:18:49;15.10;24.80
16532;DHT22;66872;63.142;14.482;2024-02-14T13:21:15;15.10;24.80
16532;DHT22;66872;63.142;14.482;2024-02-14T13:23:42;15.10;24.80
16532;DHT22;66872;63.142;14.482;2024-02-14T13:26:08;15.10;24.70
16532;DHT22;66872;63.142;14.482;2024-02-14T13:28:34;15.10;24.70
16532;DHT22;66872;63.142;14.482;2024-02-14T13:31:00;15.10;24.70
16532;DHT22;66872;63.142;14.482;2024-02-14T13:33:26;15.10;24.80
16532;DHT22;66872;63.142;14.482;2024-02-14T13:35:51;15.10;24.80
16532;DHT22;66872;63.142;14.482;2024-02-14T13:38:17;15.10;24.80
16532;DHT22;66872;63.142;14.482;2024-02-14T13:40:43;15.20;24.80
16532;DHT22;66872;63.142;14.482;2024-02-14T13:43:09;15.20;24.80
16532;DHT22;66872;63.142;14.482;2024-02-14T13:45:46;15.20;24.80
16532;DHT22;66872;63.142;14.482;2024-02-14T13:48:13;15.20;24.80
16532;DHT22;66872;63.142;14.482;2024-02-14T13:50:39;15.20;24.80
16532;DHT22;66872;63.142;14.482;2024-02-14T13:53:06;15.20;24.80
16532;DHT22;66872;63.142;14.482;2024-02-14T13:55:32;15.20;24.80
16532;DHT22;66872;63.142;14.482;2024-02-14T13:57:57;15.20;24.80
16532;DHT22;66872;63.142;14.482;2024-02-14T14:00:23;15.20;24.80
16532;DHT22;66872;63.142;14.482;2024-02-14T14:02:49;15.20;24.80
16532;DHT22;66872;63.142;14.482;2024-02-14T14:05:14;15.20;24.80
16532;DHT22;66872;63.142;14.482;2024-02-14T14:07:41;15.20;24.80
16532;DHT22;66872;63.142;14.482;2024-02-14T14:10:10;15.20;24.80
16532;DHT22;66872;63.142;14.482;2024-02-14T14:12:36;15.20;24.80
16532;DHT22;66872;63.142;14.482;2024-02-14T14:15:02;15.20;24.80
16532;DHT22;66872;63.142;14.482;2024-02-14T14:17:28;15.20;24.80
16532;DHT22;66872;63.142;14.482;2024-02-14T14:19:54;15.20;24.80
16532;DHT22;66872;63.142;14.482;2024-02-14T14:22:20;15.20;24.80
16532;DHT22;66872;63.142;14.482;2024-02-14T14:24:46;15.20;24.80
16532;DHT22;66872;63.142;14.482;2024-02-14T14:27:12;15.20;24.80
16532;DHT22;66872;63.142;14.482;2024-02-14T14:29:43;15.20;24.80
16532;DHT22;66872;63.142;14.482;2024-02-14T14:32:09;15.20;24.80
16532;DHT22;66872;63.142;14.482;2024-02-14T14:34:35;15.20;24.80
16532;DHT22;66872;63.142;14.482;2024-02-14T14:37:01;15.20;24.80
16532;DHT22;66872;63.142;14.482;2024-02-14T14:39:27;15.20;24.80
16532;DHT22;66872;63.142;14.482;2024-02-14T14:41:53;15.20;24.90
16532;DHT22;66872;63.142;14.482;2024-02-14T14:44:22;15.20;24.80
16532;DHT22;66872;63.142;14.482;2024-02-14T14:46:47;15.20;24.90
16532;DHT22;66872;63.142;14.482;2024-02-14T14:49:15;15.20;24.90
16532;DHT22;66872;63.142;14.482;2024-02-14T14:51:41;15.20;24.90
16532;DHT22;66872;63.142;14.482;2024-02-14T14:54:06;15.20;24.90
16532;DHT22;66872;63.142;14.482;2024-02-14T14:56:32;15.20;24.90
16532;DHT22;66872;63.142;14.482;2024-02-14T14:58:57;15.20;25.00
16532;DHT22;66872;63.142;14.482;2024-02-14T15:01:25;15.20;25.10
16532;DHT22;66872;63.142;14.482;2024-02-14T15:03:53;15.20;24.90
16532;DHT22;66872;63.142;14.482;2024-02-14T15:06:19;15.20;24.90
16532;DHT22;66872;63.142;14.482;2024-02-14T15:08:44;15.20;24.90
16532;DHT22;66872;63.142;14.482;2024-02-14T15:11:11;15.20;24.80
16532;DHT22;66872;63.142;14.482;2024-02-14T15:13:40;15.20;24.80